createdAt,value
2018-07-15T00:00:17.235Z,7.03
2018-07-15T00:02:20.743Z,7.03
2018-07-15T00:04:24.272Z,7.03
2018-07-15T00:06:27.767Z,7.47
2018-07-15T00:08:31.295Z,6.60
2018-07-15T00:10:43.275Z,7.00
2018-07-15T00:12:46.844Z,7.30
2018-07-15T00:14:50.327Z,7.67
2018-07-15T00:16:53.814Z,7.57
2018-07-15T00:18:57.428Z,7.93
2018-07-15T00:21:01.009Z,11.00
2018-07-15T00:23:04.631Z,8.93
2018-07-15T00:25:08.184Z,7.80
2018-07-15T00:27:11.672Z,8.60
2018-07-15T00:29:15.206Z,7.67
2018-07-15T00:31:18.770Z,7.27
2018-07-15T00:33:22.545Z,9.17
2018-07-15T00:35:26.103Z,8.10
2018-07-15T00:37:29.736Z,8.87
2018-07-15T00:39:33.277Z,9.43
2018-07-15T00:41:36.828Z,8.50
2018-07-15T00:43:40.490Z,10.73
2018-07-15T00:45:44.071Z,8.67
2018-07-15T00:47:47.656Z,9.07
2018-07-15T00:49:51.166Z,8.70
2018-07-15T00:51:54.663Z,9.00
2018-07-15T00:53:58.266Z,9.50
2018-07-15T00:56:01.812Z,10.47
2018-07-15T00:58:05.397Z,8.90
2018-07-15T01:00:09.112Z,8.17
2018-07-15T01:02:12.612Z,9.17
2018-07-15T01:04:16.300Z,8.17
2018-07-15T01:06:19.847Z,9.23
2018-07-15T01:08:23.347Z,8.27
2018-07-15T01:10:26.871Z,9.97
2018-07-15T01:12:30.404Z,7.77
2018-07-15T01:14:33.935Z,9.73
2018-07-15T01:16:38.572Z,8.17
2018-07-15T01:18:42.118Z,10.03
2018-07-15T01:20:45.629Z,8.60
2018-07-15T01:22:49.114Z,7.53
2018-07-15T01:24:52.628Z,8.07
2018-07-15T01:26:56.189Z,11.70
2018-07-15T01:28:59.796Z,7.70
2018-07-15T01:31:03.511Z,7.47
2018-07-15T01:33:07.376Z,7.23
2018-07-15T01:35:10.924Z,7.37
2018-07-15T01:37:14.498Z,10.40
2018-07-15T01:39:17.999Z,9.90
2018-07-15T01:41:21.559Z,9.30
2018-07-15T01:43:25.087Z,8.47
2018-07-15T01:45:28.648Z,10.27
2018-07-15T01:47:32.159Z,10.27
2018-07-15T01:49:35.772Z,8.43
2018-07-15T01:51:39.271Z,8.53
2018-07-15T01:53:42.859Z,10.20
2018-07-15T01:55:46.363Z,8.40
2018-07-15T01:57:49.851Z,7.50
2018-07-15T01:59:53.360Z,7.60
2018-07-15T02:01:56.951Z,7.50
2018-07-15T02:04:00.523Z,9.60
2018-07-15T02:06:04.090Z,7.83
2018-07-15T02:08:07.584Z,9.47
2018-07-15T02:10:11.136Z,7.77
2018-07-15T02:12:14.618Z,8.13
2018-07-15T02:14:18.187Z,11.77
2018-07-15T02:16:21.688Z,9.60
2018-07-15T02:18:25.167Z,10.77
2018-07-15T02:20:28.782Z,8.83
2018-07-15T02:22:32.239Z,8.57
2018-07-15T02:24:35.815Z,8.63
2018-07-15T02:26:39.393Z,9.80
2018-07-15T02:28:42.934Z,10.27
2018-07-15T02:30:46.567Z,8.57
2018-07-15T02:32:50.098Z,8.70
2018-07-15T02:34:53.607Z,9.53
2018-07-15T02:36:57.112Z,9.57
2018-07-15T02:39:00.600Z,8.23
2018-07-15T02:41:04.227Z,7.97
2018-07-15T02:43:07.927Z,10.20
2018-07-15T02:45:11.453Z,7.60
2018-07-15T02:47:15.080Z,8.00
2018-07-15T02:49:18.655Z,10.90
2018-07-15T02:51:21.821Z,9.00
2018-07-15T02:53:25.375Z,7.87
2018-07-15T02:55:28.979Z,9.03
2018-07-15T02:57:32.524Z,8.80
2018-07-15T02:59:36.160Z,10.67
2018-07-15T03:01:39.875Z,13.03
2018-07-15T03:03:43.377Z,8.73
2018-07-15T03:05:46.975Z,11.27
2018-07-15T03:07:50.595Z,8.87
2018-07-15T03:09:54.107Z,10.60
2018-07-15T03:11:57.592Z,9.23
2018-07-15T03:14:01.146Z,10.47
2018-07-15T03:16:04.687Z,9.13
2018-07-15T03:18:08.310Z,8.90
2018-07-15T03:20:11.847Z,9.03
2018-07-15T03:22:15.410Z,10.17
2018-07-15T03:24:18.955Z,11.93
2018-07-15T03:26:22.635Z,9.87
2018-07-15T03:28:26.175Z,8.87
2018-07-15T03:30:29.695Z,11.17
2018-07-15T03:32:33.311Z,9.70
2018-07-15T03:34:36.787Z,8.47
2018-07-15T03:36:40.284Z,9.93
2018-07-15T03:38:43.782Z,8.53
2018-07-15T03:40:47.347Z,8.43
2018-07-15T03:42:50.897Z,8.70
2018-07-15T03:44:54.470Z,9.43
2018-07-15T03:46:58.009Z,9.23
2018-07-15T03:49:01.702Z,9.40
2018-07-15T03:51:05.447Z,9.57
2018-07-15T03:53:08.997Z,9.67
2018-07-15T03:55:12.554Z,10.80
2018-07-15T03:57:16.075Z,8.80
2018-07-15T03:59:19.603Z,9.50
2018-07-15T04:01:23.106Z,8.83
2018-07-15T04:03:26.600Z,10.23
2018-07-15T04:05:30.094Z,10.00
2018-07-15T04:07:33.771Z,10.97
2018-07-15T04:09:37.239Z,9.53
2018-07-15T04:11:40.876Z,9.57
2018-07-15T04:13:44.369Z,12.80
2018-07-15T04:15:47.878Z,11.30
2018-07-15T04:17:56.552Z,9.53
2018-07-15T04:20:00.101Z,10.13
2018-07-15T04:22:03.751Z,9.03
2018-07-15T04:24:07.224Z,9.33
2018-07-15T04:26:10.387Z,12.73
2018-07-15T04:28:13.944Z,9.67
2018-07-15T04:30:17.469Z,10.17
2018-07-15T04:32:21.000Z,9.90
2018-07-15T04:34:24.543Z,9.40
2018-07-15T04:36:28.067Z,9.47
2018-07-15T04:38:31.642Z,8.97
2018-07-15T04:40:35.129Z,9.37
2018-07-15T04:42:38.798Z,8.70
2018-07-15T04:44:42.282Z,10.13
2018-07-15T04:46:45.872Z,9.30
2018-07-15T04:48:49.438Z,12.40
2018-07-15T04:50:52.947Z,9.27
2018-07-15T04:52:56.435Z,10.63
2018-07-15T04:55:00.090Z,8.43
2018-07-15T04:57:03.644Z,11.40
2018-07-15T04:59:07.118Z,8.80
2018-07-15T05:01:10.611Z,9.37
2018-07-15T05:03:14.108Z,8.27
2018-07-15T05:05:17.587Z,8.93
2018-07-15T05:07:21.236Z,8.83
2018-07-15T05:09:24.849Z,11.40
2018-07-15T05:11:28.349Z,9.97
2018-07-15T05:13:31.851Z,8.60
2018-07-15T05:15:35.371Z,8.93
2018-07-15T05:17:38.856Z,9.00
2018-07-15T05:19:42.299Z,8.77
2018-07-15T05:21:45.794Z,8.67
2018-07-15T05:23:49.313Z,8.60
2018-07-15T05:25:52.797Z,10.30
2018-07-15T05:27:56.283Z,9.50
2018-07-15T05:29:59.814Z,12.10
2018-07-15T05:32:03.389Z,10.63
2018-07-15T05:34:06.899Z,8.63
2018-07-15T05:36:10.456Z,8.83
2018-07-15T05:38:13.981Z,8.50
2018-07-15T05:40:17.520Z,11.40
2018-07-15T05:42:21.115Z,8.93
2018-07-15T05:44:24.783Z,10.07
2018-07-15T05:46:28.231Z,12.13
2018-07-15T05:48:31.760Z,9.20
2018-07-15T05:50:35.303Z,9.50
2018-07-15T05:52:38.819Z,9.00
2018-07-15T05:54:42.320Z,9.07
2018-07-15T05:56:45.922Z,9.77
2018-07-15T05:58:49.779Z,11.63
2018-07-15T06:00:53.286Z,12.63
2018-07-15T06:02:56.814Z,9.97
2018-07-15T06:05:00.289Z,11.23
2018-07-15T06:07:03.778Z,10.20
2018-07-15T06:09:07.609Z,9.57
2018-07-15T06:11:11.300Z,10.73
2018-07-15T06:13:14.803Z,9.23
2018-07-15T06:15:18.298Z,15.43
2018-07-15T06:17:21.852Z,11.03
2018-07-15T06:19:25.320Z,9.10
2018-07-15T06:21:28.475Z,14.23
2018-07-15T06:23:32.039Z,9.10
2018-07-15T06:25:35.557Z,9.20
2018-07-15T06:27:39.059Z,8.50
2018-07-15T06:29:42.526Z,12.07
2018-07-15T06:31:46.034Z,9.50
2018-07-15T06:33:49.589Z,11.40
2018-07-15T06:35:53.100Z,9.07
2018-07-15T06:37:56.629Z,9.37
2018-07-15T06:40:00.104Z,9.63
2018-07-15T06:42:03.709Z,10.67
2018-07-15T06:44:07.543Z,8.67
2018-07-15T06:46:11.052Z,10.07
2018-07-15T06:48:14.214Z,10.50
2018-07-15T06:50:17.730Z,9.47
2018-07-15T06:52:21.423Z,11.73
2018-07-15T06:54:24.998Z,8.90
2018-07-15T06:56:28.474Z,10.70
2018-07-15T06:58:31.982Z,10.27
2018-07-15T07:00:35.702Z,11.20
2018-07-15T07:02:39.292Z,10.07
2018-07-15T07:04:42.927Z,11.80
2018-07-15T07:06:46.449Z,9.27
2018-07-15T07:08:50.030Z,8.83
2018-07-15T07:10:53.565Z,10.87
2018-07-15T07:12:57.316Z,10.13
2018-07-15T07:15:00.901Z,10.27
2018-07-15T07:17:04.451Z,10.07
2018-07-15T07:19:07.991Z,12.47
2018-07-15T07:21:11.492Z,9.43
2018-07-15T07:23:15.888Z,12.00
2018-07-15T07:25:19.429Z,8.93
2018-07-15T07:27:22.972Z,8.63
2018-07-15T07:29:26.483Z,9.43
2018-07-15T07:31:29.997Z,7.73
2018-07-15T07:33:33.547Z,10.47
2018-07-15T07:35:37.067Z,8.37
2018-07-15T07:37:40.566Z,8.10
2018-07-15T07:39:44.045Z,10.90
2018-07-15T07:41:47.548Z,7.50
2018-07-15T07:43:51.496Z,9.73
2018-07-15T07:45:54.988Z,7.67
2018-07-15T07:47:58.490Z,10.07
2018-07-15T07:50:02.082Z,10.40
2018-07-15T07:52:06.260Z,6.80
2018-07-15T07:54:09.803Z,10.37
2018-07-15T07:56:13.413Z,5.87
2018-07-15T07:58:16.917Z,6.20
2018-07-15T08:00:20.426Z,6.67
2018-07-15T08:02:24.004Z,5.70
2018-07-15T08:04:27.523Z,4.77
2018-07-15T08:06:31.060Z,6.23
2018-07-15T08:08:34.581Z,6.07
2018-07-15T08:10:38.323Z,5.70
2018-07-15T08:12:41.830Z,5.60
2018-07-15T08:14:45.364Z,5.67
2018-07-15T08:16:49.136Z,5.03
2018-07-15T08:18:52.655Z,4.78
2018-07-15T08:20:56.159Z,6.17
2018-07-15T08:22:59.695Z,4.83
2018-07-15T08:25:03.479Z,5.77
2018-07-15T08:27:07.304Z,5.63
2018-07-15T08:29:10.811Z,5.75
2018-07-15T08:31:16.163Z,4.53
2018-07-15T08:33:19.740Z,6.47
2018-07-15T08:35:23.232Z,6.33
2018-07-15T08:37:26.740Z,5.28
2018-07-15T08:39:30.247Z,6.17
2018-07-15T08:41:33.775Z,4.47
2018-07-15T08:43:37.344Z,4.45
2018-07-15T08:45:40.967Z,4.30
2018-07-15T08:47:44.448Z,5.50
2018-07-15T08:49:47.605Z,4.25
2018-07-15T08:51:51.161Z,4.62
2018-07-15T08:53:54.698Z,4.40
2018-07-15T08:55:58.346Z,6.00
2018-07-15T08:58:01.828Z,5.33
2018-07-15T09:00:05.653Z,4.70
2018-07-15T09:02:09.157Z,7.62
2018-07-15T09:04:12.700Z,4.05
2018-07-15T09:06:16.223Z,4.40
2018-07-15T09:08:19.732Z,6.05
2018-07-15T09:10:23.277Z,9.80
2018-07-15T09:12:26.883Z,5.50
2018-07-15T09:14:30.492Z,6.53
2018-07-15T09:16:34.222Z,5.20
2018-07-15T09:18:37.804Z,6.08
2018-07-15T09:20:41.272Z,5.37
2018-07-15T09:22:44.808Z,5.25
2018-07-15T09:24:48.625Z,7.28
2018-07-15T09:26:52.251Z,5.45
2018-07-15T09:28:55.790Z,8.03
2018-07-15T09:30:59.312Z,8.08
2018-07-15T09:33:02.943Z,5.58
2018-07-15T09:35:06.463Z,6.50
2018-07-15T09:37:09.973Z,9.10
2018-07-15T09:39:13.491Z,6.78
2018-07-15T09:41:17.007Z,4.62
2018-07-15T09:43:20.517Z,5.40
2018-07-15T09:45:24.032Z,4.92
2018-07-15T09:47:27.575Z,6.17
2018-07-15T09:49:31.118Z,7.70
2018-07-15T09:51:34.626Z,5.85
2018-07-15T09:53:38.221Z,4.12
2018-07-15T09:55:41.760Z,5.20
2018-07-15T09:57:45.311Z,5.80
2018-07-15T09:59:48.912Z,4.92
2018-07-15T10:01:52.437Z,5.37
2018-07-15T10:03:56.193Z,5.67
2018-07-15T10:05:59.711Z,5.58
2018-07-15T10:08:03.328Z,7.80
2018-07-15T10:10:06.951Z,5.37
2018-07-15T10:12:10.462Z,4.28
2018-07-15T10:14:14.008Z,10.15
2018-07-15T10:16:17.518Z,5.33
2018-07-15T10:18:21.038Z,5.05
2018-07-15T10:20:24.568Z,8.53
2018-07-15T10:22:28.091Z,5.62
2018-07-15T10:24:31.603Z,5.58
2018-07-15T10:26:35.312Z,4.78
2018-07-15T10:28:38.751Z,4.97
2018-07-15T10:30:42.379Z,5.62
2018-07-15T10:32:46.134Z,5.20
2018-07-15T10:34:49.714Z,4.92
2018-07-15T10:36:53.210Z,5.35
2018-07-15T10:38:56.753Z,9.58
2018-07-15T10:41:00.260Z,4.55
2018-07-15T10:43:03.777Z,4.30
2018-07-15T10:45:07.329Z,5.78
2018-07-15T10:47:10.894Z,8.05
2018-07-15T10:49:14.447Z,5.90
2018-07-15T10:51:18.048Z,4.47
2018-07-15T10:53:21.608Z,5.05
2018-07-15T10:55:25.264Z,4.92
2018-07-15T10:57:29.000Z,4.22
2018-07-15T10:59:32.568Z,5.78
2018-07-15T11:01:36.147Z,4.85
2018-07-15T11:03:39.811Z,7.42
2018-07-15T11:05:43.335Z,6.53
2018-07-15T11:07:46.825Z,7.30
2018-07-15T11:09:50.442Z,4.47
2018-07-15T11:11:54.103Z,4.78
2018-07-15T11:13:57.609Z,7.05
2018-07-15T11:16:01.164Z,8.30
2018-07-15T11:18:05.041Z,5.15
2018-07-15T11:20:08.553Z,5.35
2018-07-15T11:22:12.223Z,4.45
2018-07-15T11:24:15.769Z,4.85
2018-07-15T11:26:19.293Z,5.00
2018-07-15T11:28:22.783Z,17.90
2018-07-15T11:30:26.404Z,5.58
2018-07-15T11:32:29.970Z,5.72
2018-07-15T11:34:33.542Z,5.87
2018-07-15T11:36:37.143Z,7.17
2018-07-15T11:38:40.663Z,5.40
2018-07-15T11:40:44.158Z,9.35
2018-07-15T11:42:47.640Z,5.90
2018-07-15T11:44:51.197Z,4.97
2018-07-15T11:46:54.808Z,5.30
2018-07-15T11:48:58.570Z,5.60
2018-07-15T11:51:02.141Z,5.17
2018-07-15T11:53:05.792Z,5.10
2018-07-15T11:55:09.382Z,4.90
2018-07-15T11:57:12.910Z,11.03
2018-07-15T11:59:16.412Z,5.40
2018-07-15T12:01:20.108Z,5.33
2018-07-15T12:03:23.644Z,5.80
2018-07-15T12:05:27.211Z,5.72
2018-07-15T12:07:30.815Z,6.15
2018-07-15T12:09:34.355Z,5.28
2018-07-15T12:11:44.188Z,5.30
2018-07-15T12:13:47.739Z,6.25
2018-07-15T12:15:51.224Z,4.47
2018-07-15T12:17:54.734Z,4.53
2018-07-15T12:19:58.291Z,8.23
2018-07-15T12:22:01.890Z,5.37
2018-07-15T12:24:05.535Z,4.97
2018-07-15T12:26:09.059Z,5.87
2018-07-15T12:28:12.986Z,7.17
2018-07-15T12:30:16.576Z,4.47
2018-07-15T12:32:20.151Z,7.12
2018-07-15T12:34:23.816Z,5.62
2018-07-15T12:36:27.451Z,5.83
2018-07-15T12:38:30.749Z,4.95
2018-07-15T12:40:34.241Z,4.72
2018-07-15T12:42:37.787Z,4.85
2018-07-15T12:44:41.324Z,4.95
2018-07-15T12:46:44.853Z,5.05
2018-07-15T12:48:48.668Z,4.70
2018-07-15T12:50:52.148Z,4.50
2018-07-15T12:52:55.923Z,4.15
2018-07-15T12:54:59.427Z,5.05
2018-07-15T12:57:03.815Z,7.97
2018-07-15T12:59:07.419Z,4.78
2018-07-15T13:01:10.961Z,5.42
2018-07-15T13:03:14.583Z,4.30
2018-07-15T13:05:18.112Z,6.10
2018-07-15T13:07:21.750Z,5.62
2018-07-15T13:09:25.369Z,4.53
2018-07-15T13:11:28.955Z,4.47
2018-07-15T13:13:32.537Z,5.20
2018-07-15T13:15:36.059Z,3.98
2018-07-15T13:17:39.579Z,5.58
2018-07-15T13:19:43.100Z,4.55
2018-07-15T13:21:46.655Z,4.03
2018-07-15T13:23:50.160Z,4.10
2018-07-15T13:25:53.713Z,4.20
2018-07-15T13:27:57.311Z,5.93
2018-07-15T13:30:00.886Z,6.60
2018-07-15T13:32:04.440Z,5.40
2018-07-15T13:34:08.145Z,5.53
2018-07-15T13:36:11.770Z,5.73
2018-07-15T13:38:15.312Z,4.43
2018-07-15T13:40:18.806Z,4.00
2018-07-15T13:42:22.358Z,4.43
2018-07-15T13:44:25.884Z,4.13
2018-07-15T13:46:29.454Z,6.27
2018-07-15T13:48:33.128Z,4.60
2018-07-15T13:50:36.738Z,4.30
2018-07-15T13:52:40.336Z,4.90
2018-07-15T13:54:43.908Z,5.17
2018-07-15T13:56:47.439Z,5.30
2018-07-15T13:58:50.944Z,4.80
2018-07-15T14:00:54.514Z,4.93
2018-07-15T14:02:58.040Z,5.23
2018-07-15T14:05:01.565Z,4.37
2018-07-15T14:07:05.185Z,5.73
2018-07-15T14:09:08.823Z,4.67
2018-07-15T14:11:12.388Z,3.90
2018-07-15T14:13:16.028Z,3.60
2018-07-15T14:15:19.671Z,4.47
2018-07-15T14:17:23.129Z,3.87
2018-07-15T14:19:26.281Z,6.43
2018-07-15T14:21:29.888Z,4.17
2018-07-15T14:23:33.375Z,5.73
2018-07-15T14:25:36.943Z,6.97
2018-07-15T14:27:40.485Z,4.33
2018-07-15T14:29:44.059Z,5.80
2018-07-15T14:31:47.632Z,4.47
2018-07-15T14:33:51.268Z,4.33
2018-07-15T14:35:54.796Z,4.33
2018-07-15T14:37:58.392Z,3.73
2018-07-15T14:40:01.843Z,4.13
2018-07-15T14:42:06.079Z,3.67
2018-07-15T14:44:09.635Z,3.93
2018-07-15T14:46:13.159Z,7.10
2018-07-15T14:48:16.665Z,3.90
2018-07-15T14:50:20.199Z,6.70
2018-07-15T14:52:23.694Z,7.57
2018-07-15T14:54:27.217Z,4.97
2018-07-15T14:56:30.719Z,5.10
2018-07-15T14:58:34.267Z,7.20
2018-07-15T15:00:37.842Z,9.10
2018-07-15T15:02:41.350Z,5.63
2018-07-15T15:04:44.861Z,6.00
2018-07-15T15:06:48.471Z,6.07
2018-07-15T15:08:52.054Z,5.10
2018-07-15T15:10:55.191Z,5.80
2018-07-15T15:12:58.806Z,6.33
2018-07-15T15:15:02.339Z,4.83
2018-07-15T15:17:05.995Z,4.23
2018-07-15T15:19:09.652Z,4.43
2018-07-15T15:21:13.214Z,3.90
2018-07-15T15:23:16.524Z,4.60
2018-07-15T15:25:20.034Z,4.40
2018-07-15T15:27:24.062Z,3.47
2018-07-15T15:29:27.592Z,3.30
2018-07-15T15:31:31.126Z,3.50
2018-07-15T15:33:34.747Z,3.10
2018-07-15T15:35:40.935Z,3.73
2018-07-15T15:37:44.636Z,6.80
2018-07-15T15:39:48.255Z,3.00
2018-07-15T15:41:51.829Z,3.30
2018-07-15T15:43:55.339Z,3.07
2018-07-15T15:45:58.871Z,3.97
2018-07-15T15:48:02.364Z,3.00
2018-07-15T15:50:06.139Z,3.27
2018-07-15T15:52:09.655Z,2.63
2018-07-15T15:54:13.304Z,2.60
2018-07-15T15:56:16.907Z,2.77
2018-07-15T15:58:20.447Z,2.80
2018-07-15T16:00:24.383Z,2.57
2018-07-15T16:02:28.845Z,2.80
2018-07-15T16:04:32.354Z,2.40
2018-07-15T16:06:35.569Z,2.83
2018-07-15T16:08:39.769Z,2.40
2018-07-15T16:10:43.361Z,2.53
2018-07-15T16:12:46.879Z,2.40
2018-07-15T16:14:50.520Z,2.73
2018-07-15T16:16:54.006Z,4.23
2018-07-15T16:18:57.817Z,2.72
2018-07-15T16:21:01.766Z,2.30
2018-07-15T16:23:05.683Z,5.30
2018-07-15T16:25:09.442Z,3.63
2018-07-15T16:27:13.254Z,2.60
2018-07-15T16:29:16.772Z,3.43
2018-07-15T16:31:20.315Z,3.10
2018-07-15T16:33:24.182Z,3.22
2018-07-15T16:35:29.710Z,3.30
2018-07-15T16:37:33.194Z,4.03
2018-07-15T16:39:37.151Z,4.20
2018-07-15T16:41:40.847Z,5.20
2018-07-15T16:43:44.493Z,3.80
2018-07-15T16:45:48.007Z,2.80
2018-07-15T16:47:51.710Z,4.90
2018-07-15T16:49:55.521Z,5.50
2018-07-15T16:51:58.985Z,5.73
2018-07-15T16:54:02.253Z,3.50
2018-07-15T16:56:06.054Z,10.00
2018-07-15T16:58:09.572Z,3.33
2018-07-15T17:00:13.122Z,3.80
2018-07-15T17:02:16.639Z,2.50
2018-07-15T17:04:20.178Z,3.50
2018-07-15T17:06:23.670Z,5.20
2018-07-15T17:08:27.218Z,4.67
2018-07-15T17:10:30.753Z,5.23
2018-07-15T17:12:34.338Z,5.33
2018-07-15T17:14:37.840Z,5.07
2018-07-15T17:16:41.370Z,8.37
2018-07-15T17:18:44.883Z,7.03
2018-07-15T17:20:48.489Z,4.43
2018-07-15T17:22:51.998Z,3.23
2018-07-15T17:24:55.580Z,3.23
2018-07-15T17:26:59.052Z,4.17
2018-07-15T17:29:02.588Z,3.97
2018-07-15T17:31:06.420Z,3.87
2018-07-15T17:33:09.903Z,5.40
2018-07-15T17:35:13.550Z,6.27
2018-07-15T17:37:17.140Z,4.00
2018-07-15T17:39:20.623Z,4.27
2018-07-15T17:41:24.129Z,5.97
2018-07-15T17:43:27.626Z,5.10
2018-07-15T17:45:31.215Z,4.10
2018-07-15T17:47:34.768Z,5.70
2018-07-15T17:49:38.326Z,4.83
2018-07-15T17:51:41.919Z,5.23
2018-07-15T17:53:45.409Z,3.83
2018-07-15T17:55:48.985Z,4.10
2018-07-15T17:57:52.523Z,4.07
2018-07-15T17:59:56.055Z,3.80
2018-07-15T18:01:59.583Z,3.87
2018-07-15T18:04:03.114Z,4.33
2018-07-15T18:06:06.776Z,3.90
2018-07-15T18:08:10.293Z,4.30
2018-07-15T18:10:13.841Z,3.30
2018-07-15T18:12:17.391Z,5.73
2018-07-15T18:14:20.979Z,4.67
2018-07-15T18:16:24.764Z,5.60
2018-07-15T18:18:28.290Z,6.43
2018-07-15T18:20:31.877Z,4.70
2018-07-15T18:22:35.447Z,5.07
2018-07-15T18:24:39.101Z,6.30
2018-07-15T18:26:42.690Z,5.60
2018-07-15T18:28:46.243Z,4.40
2018-07-15T18:30:49.921Z,3.93
2018-07-15T18:32:53.688Z,4.93
2018-07-15T18:34:57.475Z,4.90
2018-07-15T18:37:01.055Z,5.83
2018-07-15T18:39:05.257Z,7.10
2018-07-15T18:41:08.818Z,6.10
2018-07-15T18:43:12.613Z,5.10
2018-07-15T18:45:16.269Z,5.93
2018-07-15T18:47:20.114Z,7.10
2018-07-15T18:49:23.326Z,5.50
2018-07-15T18:51:27.147Z,5.33
2018-07-15T18:53:30.739Z,6.27
2018-07-15T18:55:34.207Z,5.00
2018-07-15T18:57:37.747Z,6.17
2018-07-15T18:59:41.287Z,7.57
2018-07-15T19:01:44.797Z,6.57
2018-07-15T19:03:48.292Z,5.27
2018-07-15T19:05:51.837Z,7.63
2018-07-15T19:07:55.447Z,4.90
2018-07-15T19:09:58.967Z,5.63
2018-07-15T19:12:02.509Z,5.60
2018-07-15T19:14:06.102Z,6.67
2018-07-15T19:16:09.402Z,5.00
2018-07-15T19:18:12.925Z,5.93
2018-07-15T19:20:16.487Z,5.47
2018-07-15T19:22:20.144Z,7.47
2018-07-15T19:24:23.703Z,7.00
2018-07-15T19:26:27.316Z,7.10
2018-07-15T19:28:30.920Z,6.87
2018-07-15T19:30:34.575Z,5.90
2018-07-15T19:32:38.082Z,7.70
2018-07-15T19:34:41.622Z,5.57
2018-07-15T19:36:45.218Z,6.97
2018-07-15T19:38:48.761Z,6.87
2018-07-15T19:40:52.335Z,6.73
2018-07-15T19:42:55.973Z,4.50
2018-07-15T19:44:59.604Z,4.13
2018-07-15T19:47:03.184Z,4.27
2018-07-15T19:49:06.747Z,4.57
2018-07-15T19:51:10.312Z,4.20
2018-07-15T19:53:13.891Z,7.30
2018-07-15T19:55:17.408Z,8.27
2018-07-15T19:57:20.947Z,5.07
2018-07-15T19:59:24.497Z,5.07
2018-07-15T20:01:28.136Z,14.47
2018-07-15T20:03:31.652Z,16.70
2018-07-15T20:05:35.182Z,10.07
2018-07-15T20:07:38.691Z,9.20
2018-07-15T20:09:42.167Z,5.33
2018-07-15T20:11:45.712Z,5.73
2018-07-15T20:13:49.277Z,6.93
2018-07-15T20:15:52.787Z,6.67
2018-07-15T20:17:56.782Z,6.07
2018-07-15T20:20:00.396Z,7.40
2018-07-15T20:22:04.046Z,6.00
2018-07-15T20:24:07.644Z,7.37
2018-07-15T20:26:11.170Z,5.70
2018-07-15T20:28:14.696Z,4.90
2018-07-15T20:30:18.205Z,7.90
2018-07-15T20:32:21.726Z,5.33
2018-07-15T20:34:25.289Z,4.67
2018-07-15T20:36:28.858Z,5.47
2018-07-15T20:38:32.576Z,6.30
2018-07-15T20:40:36.004Z,5.03
2018-07-15T20:42:39.528Z,6.20
2018-07-15T20:44:43.008Z,4.70
2018-07-15T20:46:49.547Z,7.00
2018-07-15T20:48:53.164Z,5.70
2018-07-15T20:50:56.664Z,8.47
2018-07-15T20:53:00.232Z,6.20
2018-07-15T20:55:03.732Z,5.10
2018-07-15T20:57:07.266Z,7.67
2018-07-15T20:59:10.788Z,5.70
2018-07-15T21:01:14.391Z,6.00
2018-07-15T21:03:17.938Z,5.90
2018-07-15T21:05:21.500Z,5.70
2018-07-15T21:07:24.652Z,7.53
2018-07-15T21:09:28.226Z,5.53
2018-07-15T21:11:31.884Z,14.07
2018-07-15T21:13:35.379Z,5.67
2018-07-15T21:15:38.991Z,5.60
2018-07-15T21:17:42.649Z,5.83
2018-07-15T21:19:46.320Z,6.13
2018-07-15T21:21:49.882Z,7.50
2018-07-15T21:23:53.403Z,5.97
2018-07-15T21:25:56.939Z,6.37
2018-07-15T21:28:00.496Z,5.63
2018-07-15T21:30:04.193Z,6.73
2018-07-15T21:32:07.872Z,5.53
2018-07-15T21:34:11.466Z,7.17
2018-07-15T21:36:14.949Z,5.93
2018-07-15T21:38:18.131Z,7.60
2018-07-15T21:40:21.679Z,6.30
2018-07-15T21:42:25.259Z,20.93
2018-07-15T21:44:28.839Z,8.83
2018-07-15T21:46:32.280Z,6.27
2018-07-15T21:48:35.901Z,6.60
2018-07-15T21:50:39.420Z,6.93
2018-07-15T21:52:42.931Z,6.77
2018-07-15T21:54:46.459Z,5.70
2018-07-15T21:56:49.950Z,5.80
2018-07-15T21:58:53.449Z,9.23
2018-07-15T22:00:56.956Z,6.50
2018-07-15T22:03:00.531Z,6.00
2018-07-15T22:05:04.354Z,5.90
2018-07-15T22:07:19.167Z,9.23
2018-07-15T22:09:33.962Z,6.93
2018-07-15T22:11:37.519Z,6.10
2018-07-15T22:13:41.060Z,5.80
2018-07-15T22:15:44.604Z,5.70
2018-07-15T22:17:48.130Z,5.83
2018-07-15T22:19:51.627Z,7.70
2018-07-15T22:21:55.130Z,7.77
2018-07-15T22:23:58.698Z,8.10
2018-07-15T22:26:02.214Z,6.37
2018-07-15T22:28:05.906Z,7.07
2018-07-15T22:30:09.432Z,6.77
2018-07-15T22:32:13.196Z,9.90
2018-07-15T22:34:16.719Z,7.17
2018-07-15T22:36:20.179Z,7.80
2018-07-15T22:38:23.705Z,7.43
2018-07-15T22:40:27.188Z,10.00
2018-07-15T22:42:30.698Z,8.33
2018-07-15T22:44:34.268Z,7.43
2018-07-15T22:46:37.842Z,7.60
2018-07-15T22:48:41.500Z,7.53
2018-07-15T22:50:45.092Z,8.63
2018-07-15T22:52:48.644Z,8.23
2018-07-15T22:54:52.175Z,7.50
2018-07-15T22:56:55.667Z,8.43
2018-07-15T22:58:59.219Z,10.90
2018-07-15T23:01:02.818Z,8.43
2018-07-15T23:03:06.374Z,8.30
2018-07-15T23:05:50.249Z,7.23
2018-07-15T23:07:53.827Z,7.37
2018-07-15T23:09:57.309Z,7.03
2018-07-15T23:12:01.018Z,8.90
2018-07-15T23:14:04.655Z,7.57
2018-07-15T23:16:08.435Z,6.33
2018-07-15T23:18:12.021Z,6.50
2018-07-15T23:20:15.552Z,6.23
2018-07-15T23:22:25.837Z,5.47
2018-07-15T23:24:29.320Z,7.20
2018-07-15T23:26:32.826Z,6.33
2018-07-15T23:28:36.343Z,6.20
2018-07-15T23:30:40.727Z,6.10
2018-07-15T23:32:44.491Z,6.20
2018-07-15T23:34:48.032Z,7.30
2018-07-15T23:36:51.542Z,9.47
2018-07-15T23:38:55.068Z,8.97
2018-07-15T23:40:58.566Z,6.80
2018-07-15T23:43:02.492Z,6.30
2018-07-15T23:45:06.303Z,6.53
2018-07-15T23:47:09.818Z,8.43
2018-07-15T23:49:13.402Z,7.97
2018-07-15T23:51:16.918Z,8.80
2018-07-15T23:53:20.431Z,7.97
2018-07-15T23:55:24.269Z,10.53
2018-07-15T23:57:27.760Z,8.70
2018-07-15T23:59:31.256Z,9.30
